createdAt,value
2023-04-17T00:00:50.677Z,215.60
2023-04-17T00:01:55.481Z,204.50
2023-04-17T00:02:57.590Z,234.10
2023-04-17T00:03:59.476Z,241.23
2023-04-17T00:05:01.276Z,233.77
2023-04-17T00:06:03.701Z,217.70
2023-04-17T00:07:06.115Z,236.13
2023-04-17T00:08:07.712Z,234.45
2023-04-17T00:09:10.144Z,272.38
2023-04-17T00:10:12.233Z,272.73
2023-04-17T00:11:13.983Z,246.77
2023-04-17T00:12:16.115Z,227.23
2023-04-17T00:13:17.782Z,249.10
2023-04-17T00:14:19.401Z,254.35
2023-04-17T00:15:21.101Z,254.70
2023-04-17T00:16:22.758Z,205.17
2023-04-17T00:17:24.452Z,240.10
2023-04-17T00:18:26.229Z,245.70
2023-04-17T00:19:28.167Z,222.20
2023-04-17T00:20:29.984Z,243.40
2023-04-17T00:21:32.201Z,247.05
2023-04-17T00:22:34.144Z,251.05
2023-04-17T00:23:35.835Z,242.00
2023-04-17T00:24:37.509Z,219.52
2023-04-17T00:25:39.104Z,256.00
2023-04-17T00:26:40.886Z,237.35
2023-04-17T00:27:42.955Z,271.02
2023-04-17T00:28:44.861Z,219.45
2023-04-17T00:29:46.634Z,247.35
2023-04-17T00:30:48.411Z,262.23
2023-04-17T00:31:50.134Z,266.73
2023-04-17T00:32:52.274Z,238.52
2023-04-17T00:33:53.947Z,260.77
2023-04-17T00:34:55.964Z,256.92
2023-04-17T00:35:57.839Z,264.17
2023-04-17T00:36:59.560Z,256.10
2023-04-17T00:38:01.251Z,232.98
2023-04-17T00:39:02.957Z,263.37
2023-04-17T00:40:05.036Z,231.63
2023-04-17T00:41:06.755Z,302.37
2023-04-17T00:42:08.353Z,246.63
2023-04-17T00:43:09.979Z,246.47
2023-04-17T00:44:11.689Z,276.08
2023-04-17T00:45:13.483Z,275.75
2023-04-17T00:46:15.585Z,262.20
2023-04-17T00:47:17.844Z,256.42
2023-04-17T00:48:23.982Z,261.80
2023-04-17T00:49:27.521Z,242.93
2023-04-17T00:50:29.875Z,266.63
2023-04-17T00:51:32.459Z,275.95
2023-04-17T00:52:34.489Z,269.33
2023-04-17T00:53:36.460Z,267.30
2023-04-17T00:54:38.339Z,273.48
2023-04-17T00:55:42.770Z,264.10
2023-04-17T00:56:44.670Z,265.10
2023-04-17T00:57:48.254Z,257.83
2023-04-17T00:58:51.634Z,232.93
2023-04-17T00:59:54.343Z,240.98
2023-04-17T01:00:56.122Z,215.70
2023-04-17T01:01:57.871Z,274.90
2023-04-17T01:02:59.579Z,222.25
2023-04-17T01:04:02.114Z,253.98
2023-04-17T01:05:04.166Z,245.77
2023-04-17T01:06:06.149Z,250.95
2023-04-17T01:07:07.917Z,258.20
2023-04-17T01:08:09.821Z,243.23
2023-04-17T01:09:12.154Z,278.30
2023-04-17T01:10:14.137Z,252.85
2023-04-17T01:11:15.938Z,256.52
2023-04-17T01:12:23.764Z,243.75
2023-04-17T01:13:26.431Z,215.90
2023-04-17T01:14:28.276Z,237.00
2023-04-17T01:15:30.195Z,235.82
2023-04-17T01:16:32.110Z,211.77
2023-04-17T01:17:33.893Z,220.77
2023-04-17T01:18:35.507Z,252.27
2023-04-17T01:19:37.110Z,268.80
2023-04-17T01:20:38.969Z,227.17
2023-04-17T01:21:41.223Z,238.63
2023-04-17T01:22:43.549Z,259.47
2023-04-17T01:23:48.652Z,242.00
2023-04-17T01:24:50.966Z,245.30
2023-04-17T01:25:52.989Z,263.88
2023-04-17T01:26:54.558Z,248.80
2023-04-17T01:27:56.887Z,236.50
2023-04-17T01:28:59.955Z,269.60
2023-04-17T01:30:02.160Z,275.45
2023-04-17T01:31:03.933Z,289.52
2023-04-17T01:32:05.886Z,248.00
2023-04-17T01:33:07.524Z,223.80
2023-04-17T01:34:09.266Z,254.50
2023-04-17T01:35:10.849Z,244.20
2023-04-17T01:36:12.872Z,235.68
2023-04-17T01:37:14.552Z,261.95
2023-04-17T01:38:16.164Z,257.23
2023-04-17T01:39:18.110Z,284.80
2023-04-17T01:40:19.966Z,254.25
2023-04-17T01:41:21.771Z,264.92
2023-04-17T01:42:23.480Z,255.05
2023-04-17T01:43:25.205Z,297.30
2023-04-17T01:44:26.981Z,276.27
2023-04-17T01:45:28.624Z,234.32
2023-04-17T01:46:30.439Z,264.85
2023-04-17T01:47:32.056Z,220.20
2023-04-17T01:48:34.815Z,263.48
2023-04-17T01:49:36.530Z,269.85
2023-04-17T01:50:38.305Z,237.13
2023-04-17T01:51:39.996Z,245.60
2023-04-17T01:52:42.005Z,235.77
2023-04-17T01:53:43.797Z,222.67
2023-04-17T01:54:45.472Z,266.55
2023-04-17T01:55:47.215Z,230.23
2023-04-17T01:56:48.888Z,238.50
2023-04-17T01:57:52.131Z,247.35
2023-04-17T01:58:54.556Z,227.23
2023-04-17T01:59:56.277Z,241.25
2023-04-17T02:00:58.132Z,286.95
2023-04-17T02:01:59.865Z,264.98
2023-04-17T02:03:01.575Z,266.95
2023-04-17T02:04:03.530Z,289.83
2023-04-17T02:05:05.601Z,253.93
2023-04-17T02:06:07.320Z,267.98
2023-04-17T02:07:09.099Z,242.00
2023-04-17T02:08:10.727Z,241.18
2023-04-17T02:09:12.630Z,255.07
2023-04-17T02:10:14.406Z,231.60
2023-04-17T02:11:16.216Z,244.93
2023-04-17T02:12:17.904Z,236.20
2023-04-17T02:13:19.626Z,281.92
2023-04-17T02:14:21.246Z,257.75
2023-04-17T02:15:23.070Z,234.35
2023-04-17T02:16:24.740Z,269.13
2023-04-17T02:17:27.186Z,269.73
2023-04-17T02:18:28.856Z,246.88
2023-04-17T02:19:30.743Z,219.20
2023-04-17T02:20:33.444Z,253.93
2023-04-17T02:21:35.220Z,241.57
2023-04-17T02:22:36.981Z,209.35
2023-04-17T02:23:38.614Z,223.25
2023-04-17T02:24:40.345Z,210.90
2023-04-17T02:25:42.035Z,208.15
2023-04-17T02:26:43.799Z,235.02
2023-04-17T02:27:45.466Z,261.33
2023-04-17T02:28:47.079Z,248.38
2023-04-17T02:29:48.697Z,262.88
2023-04-17T02:30:50.411Z,268.38
2023-04-17T02:31:52.129Z,205.70
2023-04-17T02:32:54.816Z,228.55
2023-04-17T02:33:56.593Z,267.00
2023-04-17T02:34:58.207Z,224.50
2023-04-17T02:35:59.858Z,218.32
2023-04-17T02:37:02.219Z,232.05
2023-04-17T02:38:04.016Z,245.82
2023-04-17T02:39:05.942Z,249.80
2023-04-17T02:40:09.737Z,225.70
2023-04-17T02:41:11.590Z,220.10
2023-04-17T02:42:13.349Z,253.23
2023-04-17T02:43:14.904Z,242.77
2023-04-17T02:44:16.496Z,238.55
2023-04-17T02:45:18.290Z,236.48
2023-04-17T02:46:20.205Z,241.32
2023-04-17T02:47:22.573Z,270.58
2023-04-17T02:48:24.350Z,238.98
2023-04-17T02:49:25.923Z,253.43
2023-04-17T02:50:27.638Z,186.63
2023-04-17T02:51:29.224Z,247.52
2023-04-17T02:52:31.732Z,265.92
2023-04-17T02:53:33.561Z,254.60
2023-04-17T02:54:35.140Z,199.50
2023-04-17T02:55:36.779Z,225.07
2023-04-17T02:56:38.504Z,252.40
2023-04-17T02:57:40.120Z,269.73
2023-04-17T02:58:44.498Z,249.32
2023-04-17T02:59:46.339Z,253.88
2023-04-17T03:00:49.034Z,234.50
2023-04-17T03:01:51.006Z,252.52
2023-04-17T03:02:53.606Z,244.43
2023-04-17T03:03:56.139Z,259.63
2023-04-17T03:05:01.991Z,226.70
2023-04-17T03:06:03.900Z,230.15
2023-04-17T03:07:06.769Z,193.15
2023-04-17T03:08:08.616Z,209.27
2023-04-17T03:09:14.801Z,197.00
2023-04-17T03:10:16.519Z,204.07
2023-04-17T03:11:18.321Z,182.82
2023-04-17T03:12:20.692Z,195.43
2023-04-17T03:13:22.418Z,206.35
2023-04-17T03:14:24.125Z,212.45
2023-04-17T03:15:25.761Z,194.68
2023-04-17T03:16:27.534Z,187.55
2023-04-17T03:17:29.289Z,147.23
2023-04-17T03:18:31.445Z,163.30
2023-04-17T03:19:33.207Z,221.52
2023-04-17T03:20:35.004Z,192.63
2023-04-17T03:21:36.670Z,178.25
2023-04-17T03:22:38.537Z,203.77
2023-04-17T03:23:41.470Z,179.02
2023-04-17T03:24:43.138Z,190.18
2023-04-17T03:25:44.731Z,187.60
2023-04-17T03:26:46.545Z,169.07
2023-04-17T03:27:48.549Z,169.88
2023-04-17T03:28:50.643Z,165.85
2023-04-17T03:29:54.816Z,206.27
2023-04-17T03:30:59.544Z,189.38
2023-04-17T03:32:01.338Z,172.48
2023-04-17T03:33:05.863Z,188.32
2023-04-17T03:34:08.094Z,175.40
2023-04-17T03:35:09.716Z,188.55
2023-04-17T03:36:11.505Z,143.07
2023-04-17T03:37:13.117Z,170.68
2023-04-17T03:38:14.735Z,165.63
2023-04-17T03:39:16.599Z,175.27
2023-04-17T03:40:18.205Z,203.95
2023-04-17T03:41:19.825Z,183.95
2023-04-17T03:42:21.430Z,161.90
2023-04-17T03:43:23.249Z,158.38
2023-04-17T03:44:24.871Z,167.05
2023-04-17T03:45:26.482Z,193.57
2023-04-17T03:46:28.240Z,162.87
2023-04-17T03:47:30.502Z,179.45
2023-04-17T03:48:32.200Z,191.63
2023-04-17T03:49:33.985Z,185.68
2023-04-17T03:50:35.761Z,185.18
2023-04-17T03:51:37.387Z,187.98
2023-04-17T03:52:39.145Z,152.50
2023-04-17T03:53:40.828Z,194.43
2023-04-17T03:54:42.788Z,153.05
2023-04-17T03:55:44.413Z,166.23
2023-04-17T03:56:46.238Z,176.40
2023-04-17T03:57:49.861Z,162.55
2023-04-17T03:58:51.494Z,147.88
2023-04-17T03:59:53.301Z,172.00
2023-04-17T04:00:55.807Z,190.68
2023-04-17T04:01:57.495Z,132.52
2023-04-17T04:02:59.609Z,151.00
2023-04-17T04:04:01.813Z,186.85
2023-04-17T04:05:04.410Z,152.95
2023-04-17T04:06:07.305Z,185.35
2023-04-17T04:07:09.206Z,150.40
2023-04-17T04:08:11.433Z,175.07
2023-04-17T04:09:13.196Z,160.20
2023-04-17T04:10:14.949Z,147.32
2023-04-17T04:11:16.814Z,137.07
2023-04-17T04:12:18.404Z,133.10
2023-04-17T04:13:20.269Z,142.27
2023-04-17T04:14:22.103Z,140.90
2023-04-17T04:15:23.898Z,157.02
2023-04-17T04:16:25.518Z,161.32
2023-04-17T04:17:27.903Z,185.35
2023-04-17T04:18:29.600Z,177.90
2023-04-17T04:19:31.222Z,141.27
2023-04-17T04:20:32.960Z,144.37
2023-04-17T04:21:34.604Z,160.50
2023-04-17T04:22:36.317Z,172.10
2023-04-17T04:23:41.108Z,183.18
2023-04-17T04:24:42.866Z,164.68
2023-04-17T04:25:44.657Z,193.45
2023-04-17T04:26:49.670Z,189.00
2023-04-17T04:27:51.933Z,166.17
2023-04-17T04:28:53.831Z,174.70
2023-04-17T04:29:58.851Z,136.38
2023-04-17T04:31:02.613Z,172.48
2023-04-17T04:32:04.867Z,180.80
2023-04-17T04:33:08.390Z,179.98
2023-04-17T04:34:11.131Z,186.32
2023-04-17T04:35:14.115Z,172.65
2023-04-17T04:36:21.070Z,157.52
2023-04-17T04:37:30.044Z,174.85
2023-04-17T04:38:32.916Z,191.27
2023-04-17T04:39:37.877Z,147.90
2023-04-17T04:40:40.095Z,139.77
2023-04-17T04:41:45.924Z,173.75
2023-04-17T04:42:51.123Z,136.55
2023-04-17T04:45:11.698Z,174.57
2023-04-17T04:46:13.346Z,166.30
2023-04-17T04:47:14.982Z,166.23
2023-04-17T04:48:16.684Z,185.57
2023-04-17T04:49:18.240Z,169.27
2023-04-17T04:50:20.347Z,176.00
2023-04-17T04:51:21.909Z,180.73
2023-04-17T04:52:23.587Z,183.10
2023-04-17T04:53:25.179Z,166.65
2023-04-17T04:54:26.760Z,172.05
2023-04-17T04:55:30.776Z,169.65
2023-04-17T04:56:33.116Z,154.25
2023-04-17T04:57:34.789Z,160.07
2023-04-17T04:58:36.401Z,133.50
2023-04-17T04:59:39.087Z,139.70
2023-04-17T05:00:40.820Z,157.25
2023-04-17T05:01:42.986Z,154.43
2023-04-17T05:02:44.742Z,147.63
2023-04-17T05:03:46.741Z,155.00
2023-04-17T05:04:48.368Z,157.20
2023-04-17T05:05:50.531Z,167.60
2023-04-17T05:06:52.496Z,170.73
2023-04-17T05:07:55.715Z,170.88
2023-04-17T05:08:57.292Z,134.35
2023-04-17T05:09:58.760Z,131.60
2023-04-17T05:11:00.392Z,145.50
2023-04-17T05:12:02.152Z,134.13
2023-04-17T05:13:03.807Z,145.77
2023-04-17T05:14:05.433Z,144.32
2023-04-17T05:15:07.376Z,141.18
2023-04-17T05:16:09.258Z,147.85
2023-04-17T05:17:10.815Z,113.75
2023-04-17T05:18:12.383Z,142.02
2023-04-17T05:19:14.131Z,118.85
2023-04-17T05:20:15.793Z,145.88
2023-04-17T05:21:17.508Z,155.23
2023-04-17T05:22:19.272Z,132.05
2023-04-17T05:23:21.533Z,110.80
2023-04-17T05:24:23.189Z,146.45
2023-04-17T05:25:24.923Z,143.13
2023-04-17T05:26:27.089Z,131.03
2023-04-17T05:27:28.756Z,131.13
2023-04-17T05:28:30.440Z,124.30
2023-04-17T05:29:33.149Z,160.52
2023-04-17T05:30:35.053Z,114.60
2023-04-17T05:31:36.639Z,125.20
2023-04-17T05:32:38.408Z,143.52
2023-04-17T05:33:40.314Z,132.90
2023-04-17T05:34:41.859Z,115.72
2023-04-17T05:35:43.393Z,139.48
2023-04-17T05:36:44.859Z,111.68
2023-04-17T05:37:46.579Z,115.57
2023-04-17T05:38:48.407Z,124.88
2023-04-17T05:39:50.001Z,92.63
2023-04-17T05:40:52.807Z,108.17
2023-04-17T05:41:56.900Z,118.07
2023-04-17T05:43:05.482Z,120.38
2023-04-17T05:44:07.275Z,125.40
2023-04-17T05:45:12.359Z,140.13
2023-04-17T05:46:13.876Z,104.77
2023-04-17T05:47:15.622Z,120.93
2023-04-17T05:48:17.277Z,122.60
2023-04-17T05:49:18.841Z,115.90
2023-04-17T05:50:20.595Z,113.47
2023-04-17T05:51:22.179Z,105.35
2023-04-17T05:52:24.453Z,119.63
2023-04-17T05:53:26.072Z,94.40
2023-04-17T05:54:30.404Z,94.85
2023-04-17T05:55:32.166Z,85.57
2023-04-17T05:56:34.151Z,112.88
2023-04-17T05:57:35.855Z,91.53
2023-04-17T05:58:37.371Z,105.70
2023-04-17T05:59:39.028Z,105.63
2023-04-17T06:00:41.583Z,93.90
2023-04-17T06:01:43.756Z,91.50
2023-04-17T06:02:45.532Z,97.78
2023-04-17T06:03:48.170Z,96.75
2023-04-17T06:04:50.142Z,113.10
2023-04-17T06:05:52.191Z,94.40
2023-04-17T06:06:54.085Z,94.90
2023-04-17T06:07:56.443Z,107.60
2023-04-17T06:08:58.470Z,94.97
2023-04-17T06:10:00.260Z,95.63
2023-04-17T06:11:01.780Z,93.22
2023-04-17T06:12:04.127Z,94.38
2023-04-17T06:13:05.659Z,105.93
2023-04-17T06:14:07.217Z,105.93
2023-04-17T06:15:09.369Z,97.25
2023-04-17T06:16:11.011Z,106.78
2023-04-17T06:17:12.772Z,96.50
2023-04-17T06:18:16.179Z,109.27
2023-04-17T06:19:17.825Z,97.30
2023-04-17T06:20:19.647Z,81.25
2023-04-17T06:21:21.453Z,85.20
2023-04-17T06:22:23.054Z,101.57
2023-04-17T06:23:24.662Z,95.63
2023-04-17T06:24:26.249Z,82.23
2023-04-17T06:25:27.807Z,73.93
2023-04-17T06:26:29.421Z,84.93
2023-04-17T06:27:31.086Z,95.97
2023-04-17T06:28:32.690Z,85.45
2023-04-17T06:29:34.383Z,92.25
2023-04-17T06:30:36.387Z,73.00
2023-04-17T06:31:38.073Z,88.60
2023-04-17T06:32:43.905Z,92.47
2023-04-17T06:33:45.980Z,100.87
2023-04-17T06:35:53.959Z,75.97
2023-04-17T06:36:56.118Z,63.20
2023-04-17T06:37:57.739Z,64.05
2023-04-17T06:38:59.677Z,62.08
2023-04-17T06:40:01.472Z,57.83
2023-04-17T06:41:03.116Z,49.78
2023-04-17T06:42:06.349Z,48.47
2023-04-17T06:43:08.249Z,61.77
2023-04-17T06:44:10.094Z,50.67
2023-04-17T06:45:12.217Z,53.20
2023-04-17T06:46:14.197Z,51.20
2023-04-17T06:47:15.834Z,50.50
2023-04-17T06:48:17.368Z,43.00
2023-04-17T06:49:19.006Z,51.57
2023-04-17T06:50:20.736Z,56.73
2023-04-17T06:51:22.345Z,48.00
2023-04-17T06:52:24.023Z,62.90
2023-04-17T06:53:25.830Z,72.10
2023-04-17T06:54:27.572Z,100.90
2023-04-17T06:55:29.164Z,118.20
2023-04-17T06:56:30.780Z,102.33
2023-04-17T06:57:33.983Z,78.87
2023-04-17T06:58:42.525Z,59.33
2023-04-17T06:59:44.662Z,59.10
2023-04-17T07:00:46.368Z,54.27
2023-04-17T07:01:48.070Z,43.30
2023-04-17T07:02:49.842Z,51.27
2023-04-17T07:03:51.741Z,59.60
2023-04-17T07:04:55.052Z,50.17
2023-04-17T07:05:57.497Z,41.57
2023-04-17T07:06:59.332Z,41.20
2023-04-17T07:08:01.259Z,44.88
2023-04-17T07:09:02.973Z,44.47
2023-04-17T07:10:04.900Z,42.77
2023-04-17T07:11:06.564Z,39.97
2023-04-17T07:12:08.217Z,46.45
2023-04-17T07:13:09.768Z,40.20
2023-04-17T07:14:12.933Z,34.50
2023-04-17T07:15:14.761Z,39.33
2023-04-17T07:16:16.500Z,43.30
2023-04-17T07:17:18.224Z,39.07
2023-04-17T07:18:20.050Z,40.33
2023-04-17T07:19:21.741Z,41.80
2023-04-17T07:20:23.346Z,60.40
2023-04-17T07:21:24.921Z,43.63
2023-04-17T07:22:27.421Z,41.03
2023-04-17T07:23:29.238Z,47.17
2023-04-17T07:24:34.950Z,42.63
2023-04-17T07:25:36.618Z,66.57
2023-04-17T07:26:40.442Z,60.67
2023-04-17T07:27:42.367Z,40.07
2023-04-17T07:28:43.938Z,36.60
2023-04-17T07:29:47.696Z,40.50
2023-04-17T07:30:49.241Z,35.00
2023-04-17T07:31:50.828Z,38.05
2023-04-17T07:32:52.645Z,34.58
2023-04-17T07:33:54.444Z,31.73
2023-04-17T07:34:56.526Z,34.80
2023-04-17T07:35:58.216Z,42.07
2023-04-17T07:37:00.094Z,41.43
2023-04-17T07:38:03.678Z,32.87
2023-04-17T07:39:07.220Z,31.97
2023-04-17T07:40:10.549Z,28.83
2023-04-17T07:41:13.043Z,35.83
2023-04-17T07:42:14.561Z,39.20
2023-04-17T07:43:16.853Z,30.67
2023-04-17T07:44:18.581Z,33.43
2023-04-17T07:45:20.183Z,32.93
2023-04-17T07:46:21.899Z,30.70
2023-04-17T07:47:24.885Z,36.33
2023-04-17T07:48:27.715Z,33.03
2023-04-17T07:49:29.466Z,35.13
2023-04-17T07:50:32.400Z,30.37
2023-04-17T07:51:33.953Z,33.60
2023-04-17T07:52:35.606Z,34.67
2023-04-17T07:53:38.781Z,34.80
2023-04-17T07:54:40.502Z,34.73
2023-04-17T07:55:42.036Z,35.70
2023-04-17T07:56:46.565Z,33.33
2023-04-17T07:57:51.605Z,34.87
2023-04-17T07:58:53.665Z,29.53
2023-04-17T07:59:55.753Z,35.87
2023-04-17T08:00:58.137Z,32.27
2023-04-17T08:02:00.040Z,34.17
2023-04-17T08:03:02.324Z,29.87
2023-04-17T08:04:04.648Z,35.57
2023-04-17T08:05:07.978Z,32.80
2023-04-17T08:06:09.883Z,40.20
2023-04-17T08:07:12.806Z,36.80
2023-04-17T08:08:15.295Z,38.73
2023-04-17T08:09:16.864Z,42.17
2023-04-17T08:10:18.495Z,30.30
2023-04-17T08:11:20.073Z,32.63
2023-04-17T08:12:21.664Z,35.23
2023-04-17T08:13:23.168Z,32.37
2023-04-17T08:14:25.209Z,33.77
2023-04-17T08:15:27.043Z,34.20
2023-04-17T08:16:28.780Z,36.97
2023-04-17T08:17:30.780Z,29.63
2023-04-17T08:18:32.743Z,35.97
2023-04-17T08:19:34.791Z,32.50
2023-04-17T08:20:36.860Z,29.00
2023-04-17T08:21:38.882Z,29.77
2023-04-17T08:22:45.087Z,26.87
2023-04-17T08:23:46.667Z,25.43
2023-04-17T08:24:49.497Z,37.20
2023-04-17T08:25:51.138Z,54.73
2023-04-17T08:26:52.936Z,101.50
2023-04-17T08:27:54.572Z,43.80
2023-04-17T08:28:56.233Z,39.70
2023-04-17T08:29:58.384Z,31.20
2023-04-17T08:31:00.110Z,27.50
2023-04-17T08:32:14.169Z,27.07
2023-04-17T08:33:17.159Z,48.23
2023-04-17T08:34:18.728Z,64.50
2023-04-17T08:35:20.872Z,34.00
2023-04-17T08:36:22.929Z,31.87
2023-04-17T08:37:24.855Z,21.97
2023-04-17T08:38:29.049Z,25.63
2023-04-17T08:39:31.205Z,23.57
2023-04-17T08:40:32.758Z,25.90
2023-04-17T08:41:38.207Z,26.90
2023-04-17T08:42:41.784Z,20.57
2023-04-17T08:43:43.727Z,22.10
2023-04-17T08:44:45.772Z,20.17
2023-04-17T08:45:52.911Z,20.37
2023-04-17T08:46:58.694Z,22.77
2023-04-17T08:48:01.082Z,18.93
2023-04-17T08:49:03.194Z,18.87
2023-04-17T08:50:14.338Z,23.10
2023-04-17T08:51:16.142Z,19.63
2023-04-17T08:52:17.671Z,21.77
2023-04-17T08:53:19.717Z,17.83
2023-04-17T08:54:22.131Z,17.93
2023-04-17T08:55:30.133Z,19.00
2023-04-17T08:56:31.758Z,19.47
2023-04-17T08:57:33.264Z,19.77
2023-04-17T08:58:35.547Z,16.97
2023-04-17T08:59:37.378Z,19.13
2023-04-17T09:00:40.668Z,22.13
2023-04-17T09:02:01.460Z,18.60
2023-04-17T09:03:08.195Z,17.60
2023-04-17T09:04:10.193Z,17.80
2023-04-17T09:05:21.885Z,17.80
2023-04-17T09:06:23.707Z,22.90
2023-04-17T09:07:29.770Z,25.23
2023-04-17T09:08:31.558Z,21.50
2023-04-17T09:09:48.488Z,16.97
2023-04-17T09:10:51.116Z,19.17
2023-04-17T09:12:08.715Z,18.17
2023-04-17T09:13:12.428Z,25.23
2023-04-17T09:14:29.678Z,21.80
2023-04-17T09:15:31.811Z,19.53
2023-04-17T09:16:34.259Z,17.77
2023-04-17T09:17:37.844Z,15.07
2023-04-17T09:18:41.085Z,21.37
2023-04-17T09:20:01.342Z,73.03
2023-04-17T09:21:04.434Z,25.43
2023-04-17T09:22:22.373Z,49.13
2023-04-17T09:23:24.317Z,184.83
2023-04-17T09:24:35.290Z,113.57
2023-04-17T09:25:36.926Z,58.70
2023-04-17T09:26:38.549Z,21.43
2023-04-17T09:27:40.123Z,18.67
2023-04-17T09:28:43.705Z,29.90
2023-04-17T09:30:06.056Z,50.83
2023-04-17T09:31:24.521Z,13.90
2023-04-17T09:32:26.604Z,17.50
2023-04-17T09:33:28.374Z,63.67
2023-04-17T09:34:39.999Z,38.10
2023-04-17T09:35:41.682Z,27.33
2023-04-17T09:36:43.786Z,15.17
2023-04-17T09:37:53.162Z,16.60
2023-04-17T09:38:54.894Z,23.13
2023-04-17T09:40:00.160Z,22.70
2023-04-17T09:41:01.951Z,20.40
2023-04-17T09:42:04.338Z,23.97
2023-04-17T09:43:09.427Z,17.30
2023-04-17T09:44:12.452Z,21.97
2023-04-17T09:45:20.635Z,16.20
2023-04-17T09:46:31.631Z,17.63
2023-04-17T09:47:33.591Z,21.37
2023-04-17T09:48:35.213Z,14.00
2023-04-17T09:49:42.256Z,17.63
2023-04-17T09:50:44.461Z,19.13
2023-04-17T09:51:46.677Z,16.20
2023-04-17T09:52:50.189Z,14.23
2023-04-17T09:53:52.882Z,15.80
2023-04-17T09:54:54.717Z,19.13
2023-04-17T09:55:56.419Z,16.50
2023-04-17T09:57:03.756Z,13.43
2023-04-17T09:58:07.533Z,15.60
2023-04-17T09:59:09.879Z,13.23
2023-04-17T10:00:15.084Z,12.63
2023-04-17T10:01:17.887Z,13.43
2023-04-17T10:02:20.657Z,15.23
2023-04-17T10:03:22.929Z,13.07
2023-04-17T10:04:25.165Z,11.90
2023-04-17T10:05:28.841Z,15.03
2023-04-17T10:06:31.645Z,12.23
2023-04-17T10:07:35.348Z,12.47
2023-04-17T10:08:37.153Z,14.03
2023-04-17T10:09:43.400Z,11.23
2023-04-17T10:10:46.570Z,14.30
2023-04-17T10:11:48.418Z,12.60
2023-04-17T10:12:50.878Z,14.10
2023-04-17T10:14:04.467Z,12.43
2023-04-17T10:15:09.365Z,12.57
2023-04-17T10:16:11.005Z,10.53
2023-04-17T10:17:28.757Z,10.80
2023-04-17T10:18:30.756Z,11.50
2023-04-17T10:19:33.427Z,12.10
2023-04-17T10:20:36.577Z,10.80
2023-04-17T10:21:39.983Z,15.93
2023-04-17T10:22:42.913Z,11.10
2023-04-17T10:23:44.811Z,9.50
2023-04-17T10:24:53.563Z,9.70
2023-04-17T10:26:14.932Z,9.80
2023-04-17T10:27:28.376Z,13.13
2023-04-17T10:28:49.394Z,10.17
2023-04-17T10:29:58.630Z,9.53
2023-04-17T10:31:02.029Z,19.20
2023-04-17T10:32:09.768Z,12.50
2023-04-17T10:33:20.123Z,10.47
2023-04-17T10:34:34.651Z,9.50
2023-04-17T10:35:36.785Z,10.63
2023-04-17T10:36:38.349Z,10.07
2023-04-17T10:37:51.968Z,11.67
2023-04-17T10:38:53.596Z,11.03
2023-04-17T10:40:00.666Z,9.50
2023-04-17T10:41:04.079Z,11.23
2023-04-17T10:42:06.249Z,8.90
2023-04-17T10:43:26.490Z,12.43
2023-04-17T10:44:31.235Z,12.40
2023-04-17T10:45:51.234Z,10.20
2023-04-17T10:46:52.908Z,13.03
2023-04-17T10:47:58.576Z,9.60
2023-04-17T10:49:04.294Z,11.13
2023-04-17T10:50:08.679Z,10.87
2023-04-17T10:51:32.414Z,9.40
2023-04-17T10:52:45.022Z,11.33
2023-04-17T10:53:46.648Z,8.30
2023-04-17T10:55:08.876Z,10.40
2023-04-17T10:56:11.763Z,9.27
2023-04-17T10:57:13.479Z,8.17
2023-04-17T10:58:15.668Z,9.30
2023-04-17T10:59:18.455Z,9.17
2023-04-17T11:00:21.592Z,15.33
2023-04-17T11:01:30.478Z,8.83
2023-04-17T11:02:35.857Z,12.03
2023-04-17T11:03:38.398Z,13.87
2023-04-17T11:04:40.232Z,8.53
2023-04-17T11:05:45.877Z,9.40
2023-04-17T11:06:48.510Z,8.33
2023-04-17T11:07:52.974Z,10.17
2023-04-17T11:08:56.775Z,9.10
2023-04-17T11:09:59.745Z,9.87
2023-04-17T11:11:01.626Z,9.73
2023-04-17T11:12:03.473Z,8.37
2023-04-17T11:13:05.030Z,7.90
2023-04-17T11:14:12.815Z,7.47
2023-04-17T11:15:16.490Z,8.33
2023-04-17T11:16:19.521Z,8.00
2023-04-17T11:17:22.504Z,7.67
2023-04-17T11:18:24.148Z,8.30
2023-04-17T11:19:26.296Z,11.83
2023-04-17T11:20:30.118Z,7.97
2023-04-17T11:21:32.606Z,7.47
2023-04-17T11:22:34.246Z,8.03
2023-04-17T11:23:36.358Z,7.03
2023-04-17T11:24:38.096Z,7.03
2023-04-17T11:25:40.259Z,7.33
2023-04-17T11:26:43.094Z,11.40
2023-04-17T11:27:44.600Z,6.77
2023-04-17T11:28:46.339Z,7.87
2023-04-17T11:29:48.050Z,8.77
2023-04-17T11:30:49.782Z,6.90
2023-04-17T11:31:52.590Z,11.50
2023-04-17T11:32:54.464Z,9.97
2023-04-17T11:33:58.730Z,12.13
2023-04-17T11:35:01.186Z,11.57
2023-04-17T11:36:04.212Z,12.03
2023-04-17T11:37:05.756Z,8.03
2023-04-17T11:38:20.996Z,8.73
2023-04-17T11:39:24.553Z,9.93
2023-04-17T11:40:26.250Z,10.50
2023-04-17T11:41:46.644Z,11.33
2023-04-17T11:42:49.074Z,9.23
2023-04-17T11:43:51.746Z,8.43
2023-04-17T11:45:04.215Z,9.20
2023-04-17T11:46:06.636Z,9.20
2023-04-17T11:47:08.966Z,12.90
2023-04-17T11:48:11.682Z,15.03
2023-04-17T11:49:13.577Z,10.63
2023-04-17T11:50:16.022Z,10.77
2023-04-17T11:51:18.327Z,25.90
2023-04-17T11:52:20.039Z,12.67
2023-04-17T11:53:21.751Z,14.50
2023-04-17T11:54:27.356Z,11.67
2023-04-17T11:55:31.432Z,13.27
2023-04-17T11:56:33.037Z,10.53
2023-04-17T11:57:43.598Z,13.70
2023-04-17T11:58:55.645Z,11.33
2023-04-17T11:59:57.367Z,9.67
2023-04-17T12:01:07.117Z,9.60
2023-04-17T12:02:09.665Z,9.40
2023-04-17T12:03:30.491Z,10.00
2023-04-17T12:04:34.699Z,9.57
2023-04-17T12:05:36.801Z,8.60
2023-04-17T12:06:38.469Z,9.00
2023-04-17T12:07:40.448Z,9.00
2023-04-17T12:08:47.858Z,9.37
2023-04-17T12:09:59.145Z,9.00
2023-04-17T12:11:01.332Z,11.10
2023-04-17T12:12:06.954Z,8.97
2023-04-17T12:13:09.506Z,9.83
2023-04-17T12:14:12.670Z,9.47
2023-04-17T12:15:14.469Z,10.33
2023-04-17T12:16:16.133Z,10.10
2023-04-17T12:17:17.773Z,8.50
2023-04-17T12:18:19.373Z,9.40
2023-04-17T12:19:20.981Z,12.57
2023-04-17T12:20:23.938Z,8.93
2023-04-17T12:21:26.989Z,7.83
2023-04-17T12:22:29.851Z,12.73
2023-04-17T12:23:31.418Z,8.43
2023-04-17T12:24:32.973Z,8.87
2023-04-17T12:25:34.810Z,11.80
2023-04-17T12:26:36.407Z,8.77
2023-04-17T12:27:38.090Z,10.33
2023-04-17T12:28:39.638Z,7.93
2023-04-17T12:29:44.518Z,9.83
2023-04-17T12:30:46.539Z,9.93
2023-04-17T12:31:48.125Z,10.77
2023-04-17T12:32:50.038Z,9.30
2023-04-17T12:33:52.573Z,9.27
2023-04-17T12:34:54.728Z,9.50
2023-04-17T12:35:56.700Z,9.30
2023-04-17T12:36:58.591Z,9.30
2023-04-17T12:38:01.032Z,12.03
2023-04-17T12:39:03.073Z,9.13
2023-04-17T12:40:05.240Z,9.13
2023-04-17T12:41:07.269Z,11.10
2023-04-17T12:42:08.902Z,10.53
2023-04-17T12:43:11.285Z,8.87
2023-04-17T12:44:13.109Z,9.90
2023-04-17T12:45:15.704Z,9.50
2023-04-17T12:46:17.812Z,12.43
2023-04-17T12:47:19.453Z,12.20
2023-04-17T12:48:21.021Z,10.60
2023-04-17T12:49:23.739Z,9.50
2023-04-17T12:50:25.524Z,11.20
2023-04-17T12:51:32.318Z,13.47
2023-04-17T12:52:33.990Z,10.90
2023-04-17T12:53:35.589Z,12.97
2023-04-17T12:54:37.587Z,11.57
2023-04-17T12:55:41.043Z,10.50
2023-04-17T12:56:42.821Z,9.77
2023-04-17T12:57:44.426Z,9.70
2023-04-17T12:58:46.181Z,10.50
2023-04-17T12:59:48.264Z,9.93
2023-04-17T13:00:49.929Z,10.40
2023-04-17T13:01:51.706Z,11.93
2023-04-17T13:02:53.735Z,9.57
2023-04-17T13:03:55.582Z,10.30
2023-04-17T13:04:57.385Z,10.47
2023-04-17T13:05:59.008Z,9.33
2023-04-17T13:07:01.025Z,10.53
2023-04-17T13:08:03.618Z,10.67
2023-04-17T13:09:05.373Z,9.50
2023-04-17T13:10:07.278Z,10.80
2023-04-17T13:11:08.827Z,11.53
2023-04-17T13:12:10.548Z,10.93
2023-04-17T13:13:12.042Z,9.03
2023-04-17T13:14:15.355Z,9.97
2023-04-17T13:15:17.142Z,9.40
2023-04-17T13:16:19.023Z,10.87
2023-04-17T13:17:21.337Z,8.73
2023-04-17T13:18:22.863Z,9.67
2023-04-17T13:19:24.935Z,9.57
2023-04-17T13:20:26.529Z,9.63
2023-04-17T13:21:28.223Z,9.47
2023-04-17T13:22:29.926Z,10.80
2023-04-17T13:23:31.598Z,11.40
2023-04-17T13:24:34.058Z,8.87
2023-04-17T13:25:35.749Z,7.87